Terminal Aerodrome Forecast
Issued by NWS Charleston, WV

Current Version | Previous Version | Text Only | Print | Product List | Glossary Off
Versions: 1 2 3 4 5 6 7 8 9 10 11 12 13 14 15 16 17 18 19 20 21 22 23

000
FTUS41 KRLX 270916 AAA
TAFEKN
TAF AMD
KEKN 270916Z 2709/2806 29003KT P6SM FEW050 BKN080 OVC090
     FM271200 VRB03KT 3SM BR OVC018
     FM271500 VRB03KT P6SM BKN025
     FM271700 29004KT P6SM BKN040
     FM280300 00000KT 5SM SHRA BKN030=

USA.gov is the U.S. government's official web portal to all federal, state and local government web resources and services.